Time;durP1;ratioP1;P1;durP2;ratioP2;P2;SDS_P1;SDS_P2;PMS_P1;PMS_P2;Temp;Humidity;BMP_temperature;BMP_pressure;BME280_temperature;BME280_humidity;BME280_pressure;Samples;Min_cycle;Max_cycle;Signal;HPM_P1;HPM_P2
2023/07/12 05:05:20;;;;;;;14.83;13.30;;;22.90;99.90;;;;;;5103099;23;20915;-93
2023/07/12 05:07:47;;;;;;;11.17;10.07;;;22.90;99.90;;;;;;4971238;29;20565;-93
2023/07/12 05:10:14;;;;;;;11.60;10.40;;;;;;;;;;4971079;29;20445;-93
2023/07/12 05:12:42;;;;;;;19.60;16.93;;;;;;;;;;4971091;29;20430;-92
2023/07/12 05:15:10;;;;;;;30.40;24.77;;;23.00;99.90;;;;;;4970935;29;20521;-92
2023/07/12 05:17:38;;;;;;;11.83;10.63;;;;;;;;;;4974205;29;20497;-91
2023/07/12 05:20:07;;;;;;;14.20;10.00;;;23.00;99.90;;;;;;4975626;29;20442;-91
2023/07/12 05:22:35;;;;;;;12.17;9.80;;;23.00;99.90;;;;;;4973427;28;20486;-90
2023/07/12 05:25:02;;;;;;;11.00;9.80;;;23.00;99.90;;;;;;4967465;29;20562;-90
2023/07/12 05:27:29;;;;;;;11.20;10.10;;;23.10;99.90;;;;;;4963958;29;20473;-91
2023/07/12 05:29:56;;;;;;;11.37;10.17;;;23.10;99.90;;;;;;4965082;28;20488;-91
2023/07/12 05:32:23;;;;;;;13.73;10.23;;;;;;;;;;4972242;29;20450;-92
2023/07/12 05:34:50;;;;;;;13.23;9.30;;;;;;;;;;4974927;29;20470;-92
2023/07/12 05:37:17;;;;;;;11.33;10.20;;;;;;;;;;4970683;29;20493;-92
2023/07/12 05:39:46;;;;;;;12.53;10.20;;;23.30;99.90;;;;;;4970618;29;20450;-92
2023/07/12 05:42:13;;;;;;;10.47;8.90;;;23.40;99.90;;;;;;4968995;29;20458;-92
2023/07/12 05:44:40;;;;;;;14.33;9.63;;;23.30;1.00;;;;;;4969065;29;20545;-92
2023/07/12 05:47:07;;;;;;;11.60;9.70;;;23.50;99.90;;;;;;4969286;28;20447;-91
2023/07/12 05:49:34;;;;;;;11.27;10.03;;;23.60;99.90;;;;;;4980077;28;20431;-91
2023/07/12 05:52:02;;;;;;;18.77;10.30;;;;;;;;;;4980003;28;20425;-92
2023/07/12 05:54:30;;;;;;;13.67;10.57;;;23.60;99.90;;;;;;4979759;28;20505;-92
2023/07/12 05:56:59;;;;;;;12.90;9.80;;;23.70;99.90;;;;;;4979801;28;20466;-91
2023/07/12 05:59:27;;;;;;;11.77;9.37;;;;;;;;;;4979607;28;20435;-90
2023/07/12 06:01:54;;;;;;;10.80;9.80;;;;;;;;;;4979474;28;20509;-91
2023/07/12 06:04:21;;;;;;;11.77;9.40;;;;;;;;;;4974339;28;20474;-92
2023/07/12 06:06:50;;;;;;;13.17;9.90;;;23.80;99.90;;;;;;4970200;28;20458;-91
2023/07/12 06:09:17;;;;;;;10.60;9.57;;;24.00;1.00;;;;;;4973881;28;20486;-91
2023/07/12 06:11:44;;;;;;;10.53;9.53;;;;;;;;;;4979365;28;20469;-91
2023/07/12 06:14:13;;;;;;;16.30;9.60;;;23.80;1.00;;;;;;4979674;28;20442;-90
2023/07/12 06:16:40;;;;;;;12.37;9.00;;;23.80;1.00;;;;;;4976643;28;20438;-91
2023/07/12 06:19:07;;;;;;;10.57;9.57;;;;;;;;;;4977249;29;20426;-92
2023/07/12 06:21:34;;;;;;;11.63;9.90;;;23.90;6.30;;;;;;4979576;28;20426;-91
2023/07/12 06:24:02;;;;;;;13.13;9.90;;;;;;;;;;4979759;28;20426;-91
2023/07/12 06:26:29;;;;;;;12.70;10.23;;;;;;;;;;4979468;28;20462;-91
2023/07/12 06:28:56;;;;;;;10.73;9.63;;;24.00;1.00;;;;;;4976326;28;20458;-93
2023/07/12 06:31:28;;;;;;;10.07;9.07;;;24.10;1.00;;;;;;4965604;29;20502;-91
2023/07/12 06:33:56;;;;;;;14.63;10.23;;;;;;;;;;4966095;29;20450;-91
2023/07/12 06:36:23;;;;;;;10.20;9.17;;;24.20;1.00;;;;;;4964091;29;20498;-91
2023/07/12 06:38:53;;;;;;;16.20;11.00;;;24.30;1.00;;;;;;4965588;29;20490;-92
2023/07/12 06:41:19;;;;;;;10.97;9.37;;;23.80;82.70;;;;;;4966904;29;20458;-91
2023/07/12 06:43:47;;;;;;;15.77;10.90;;;;;;;;;;4969622;29;20490;-91
2023/07/12 06:46:14;;;;;;;10.67;9.73;;;24.60;1.00;;;;;;4973299;28;20478;-91
2023/07/12 06:48:45;;;;;;;9.30;8.40;;;24.70;1.00;;;;;;4968565;29;20486;-92
2023/07/12 06:51:12;;;;;;;12.00;8.53;;;24.90;1.00;;;;;;4967007;29;20449;-92
2023/07/12 06:53:39;;;;;;;12.30;8.60;;;25.00;1.00;;;;;;4967887;29;20535;-91
2023/07/12 06:56:06;;;;;;;10.57;8.17;;;;;;;;;;4966942;29;21058;-91
2023/07/12 06:58:34;;;;;;;10.43;7.70;;;;;;;;;;4967080;29;20489;-91
2023/07/12 07:01:01;;;;;;;10.13;7.90;;;;;;;;;;4979801;28;20433;-92
2023/07/12 07:03:28;;;;;;;11.80;7.57;;;;;;;;;;4980285;28;20477;-91
2023/07/12 07:05:57;;;;;;;8.70;8.00;;;25.60;1.00;;;;;;4973510;29;20474;-92
2023/07/12 07:08:24;;;;;;;8.43;7.63;;;25.60;1.00;;;;;;4967024;29;20466;-90
2023/07/12 07:10:52;;;;;;;11.00;7.50;;;25.90;1.00;;;;;;4971991;29;20481;-91
2023/07/12 07:13:23;;;;;;;9.40;7.80;;;;;;;;;;4968007;29;20454;-91
2023/07/12 07:15:51;;;;;;;9.23;8.07;;;25.80;28.20;;;;;;4967836;29;20538;-91
2023/07/12 07:18:19;;;;;;;17.00;8.23;;;26.10;1.00;;;;;;4966530;29;20482;-91
2023/07/12 07:20:46;;;;;;;8.70;7.80;;;;;;;;;;4964500;29;20462;-91
2023/07/12 07:23:16;;;;;;;7.50;6.80;;;26.10;1.00;;;;;;4969339;29;20473;-91
2023/07/12 07:25:43;;;;;;;9.23;7.60;;;26.10;1.00;;;;;;4973545;29;20509;-91
2023/07/12 07:28:10;;;;;;;8.47;7.67;;;25.60;1.00;;;;;;4973628;28;20422;-91
2023/07/12 07:30:38;;;;;;;9.80;7.67;;;27.10;1.00;;;;;;4965775;28;20482;-92
2023/07/12 07:33:05;;;;;;;12.87;7.87;;;;;;;;;;4965440;29;20450;-92
2023/07/12 07:35:32;;;;;;;8.50;7.70;;;;;;;;;;4965558;29;20482;-92
2023/07/12 07:37:59;;;;;;;14.97;8.40;;;;;;;;;;4965327;29;20508;-92
2023/07/12 07:40:27;;;;;;;14.70;8.20;;;25.60;1.00;;;;;;4965092;29;20538;-92
2023/07/12 07:42:56;;;;;;;9.93;7.40;;;25.60;1.00;;;;;;4965311;29;20509;-92
2023/07/12 07:45:23;;;;;;;10.53;8.60;;;25.60;1.00;;;;;;4966065;29;20474;-91
2023/07/12 07:47:50;;;;;;;10.97;8.47;;;25.70;1.00;;;;;;4968786;29;20447;-91
2023/07/12 07:50:16;;;;;;;8.43;7.60;;;25.70;1.00;;;;;;4972607;28;20527;-91
2023/07/12 07:52:44;;;;;;;8.53;7.70;;;;;;;;;;4966948;29;20485;-90
2023/07/12 07:55:11;;;;;;;12.00;8.80;;;;;;;;;;4964312;28;20967;-92
2023/07/12 07:57:39;;;;;;;10.10;9.10;;;25.50;1.00;;;;;;4964312;29;20489;-91
2023/07/12 08:00:10;;;;;;;13.67;7.50;;;25.10;1.00;;;;;;4965272;29;20446;-90
2023/07/12 08:02:37;;;;;;;10.27;8.60;;;;;;;;;;4963750;29;20474;-91
2023/07/12 08:05:05;;;;;;;11.57;9.20;;;25.40;1.00;;;;;;4965308;29;20486;-92
2023/07/12 08:07:38;;;;;;;10.40;9.13;;;25.30;27.00;;;;;;4966228;29;20451;-92
2023/07/12 08:10:07;;;;;;;9.50;8.60;;;25.50;1.00;;;;;;4970873;28;20415;-91
2023/07/12 08:12:34;;;;;;;9.47;7.77;;;;;;;;;;4965064;29;20466;-92
2023/07/12 08:15:02;;;;;;;9.33;8.23;;;25.10;1.00;;;;;;4964313;29;20472;-92
2023/07/12 08:17:29;;;;;;;11.10;8.10;;;;;;;;;;4963830;29;21014;-92
2023/07/12 08:20:01;;;;;;;9.63;8.43;;;25.00;1.00;;;;;;4964488;29;20439;-92
2023/07/12 08:22:28;;;;;;;8.23;6.90;;;;;;;;;;4965848;29;20542;-92
2023/07/12 08:24:56;;;;;;;8.50;7.10;;;;;;;;;;4978928;28;20450;-92
2023/07/12 08:27:24;;;;;;;10.43;7.00;;;;;;;;;;4980686;28;20474;-93
2023/07/12 08:29:54;;;;;;;6.90;5.77;;;;;;;;;;4971479;29;20962;-91
2023/07/12 08:32:23;;;;;;;10.43;6.00;;;25.20;99.90;;;;;;4965063;29;20468;-91
2023/07/12 08:34:50;;;;;;;7.67;6.00;;;;;;;;;;4969441;29;20487;-92
2023/07/12 08:37:18;;;;;;;11.83;6.10;;;;;;;;;;4976977;28;20450;-91
2023/07/12 08:39:44;;;;;;;5.97;5.37;;;25.30;1.00;;;;;;4978339;28;20454;-91
2023/07/12 08:42:15;;;;;;;6.93;5.77;;;23.80;1.00;;;;;;4979734;28;20500;-92
2023/07/12 08:44:42;;;;;;;7.70;6.10;;;;;;;;;;4972839;28;20478;-91
2023/07/12 08:47:16;;;;;;;6.40;5.80;;;25.30;99.90;;;;;;4970709;29;20462;-92
2023/07/12 08:49:45;;;;;;;11.37;5.57;;;25.20;99.90;;;;;;4970614;29;20438;-92
2023/07/12 08:52:17;;;;;;;6.77;6.00;;;25.20;1.00;;;;;;4971766;28;20441;-92
2023/07/12 08:54:45;;;;;;;8.93;5.27;;;25.10;1.00;;;;;;4970568;29;20478;-93
2023/07/12 08:57:17;;;;;;;5.03;4.53;;;25.00;99.90;;;;;;4968067;29;20454;-93
2023/07/12 08:59:50;;;;;;;6.03;4.70;;;25.00;1.00;;;;;;4968099;29;20466;-93
2023/07/12 09:02:21;;;;;;;9.17;5.57;;;25.00;1.00;;;;;;4968150;29;20449;-93
2023/07/12 09:04:50;;;;;;;6.63;4.80;;;24.90;99.90;;;;;;4971028;28;20470;-91
2023/07/12 09:07:28;;;;;;;5.90;5.30;;;24.90;99.90;;;;;;4978895;28;20418;-91
2023/07/12 09:09:57;;;;;;;6.47;5.83;;;24.80;99.90;;;;;;4980395;28;20426;-91
2023/07/12 09:12:27;;;;;;;3.90;3.33;;;25.10;1.00;;;;;;4977153;28;20452;-92
2023/07/12 09:14:58;;;;;;;4.30;4.00;;;25.00;1.00;;;;;;4979723;28;20474;-90
2023/07/12 09:17:28;;;;;;;5.87;3.90;;;25.20;1.00;;;;;;4979698;28;20434;-91
2023/07/12 09:19:57;;;;;;;4.10;3.50;;;25.20;1.00;;;;;;4971131;28;20442;-92
2023/07/12 09:22:25;;;;;;;4.30;3.97;;;;;;;;;;4965852;29;20462;-92
2023/07/12 09:24:54;;;;;;;3.50;3.20;;;25.30;1.00;;;;;;4964671;29;20470;-91
2023/07/12 09:27:26;;;;;;;4.60;4.03;;;25.30;99.90;;;;;;4968049;29;20580;-91
2023/07/12 09:30:01;;;;;;;3.87;3.57;;;25.30;1.00;;;;;;4976844;29;20483;-93
2023/07/12 09:32:33;;;;;;;3.60;3.40;;;25.80;1.00;;;;;;4967855;29;20445;-91
2023/07/12 09:35:05;;;;;;;6.40;3.63;;;25.00;9.00;;;;;;4978552;28;20469;-89
2023/07/12 09:37:37;;;;;;;9.40;3.70;;;25.70;1.00;;;;;;4979210;28;20425;-91
2023/07/12 09:40:14;;;;;;;3.10;2.87;;;25.40;1.00;;;;;;4979586;28;20457;-92
2023/07/12 09:42:42;;;;;;;3.50;3.20;;;;;;;;;;4979894;28;20485;-91
2023/07/12 09:45:13;;;;;;;4.40;3.80;;;25.50;1.00;;;;;;4979474;28;20454;-91
2023/07/12 09:47:47;;;;;;;3.37;3.00;;;25.50;1.00;;;;;;4977959;29;20472;-92
2023/07/12 09:50:22;;;;;;;3.33;3.03;;;25.50;1.00;;;;;;4969184;29;20457;-91
2023/07/12 09:52:59;;;;;;;3.60;3.30;;;25.60;1.00;;;;;;4968126;29;20476;-92
2023/07/12 09:55:35;;;;;;;5.07;3.40;;;25.60;1.00;;;;;;4966299;29;20477;-92
2023/07/12 09:58:12;;;;;;;4.13;3.10;;;25.60;1.00;;;;;;4970602;29;20561;-91
2023/07/12 10:00:58;;;;;;;3.77;3.40;;;25.80;1.00;;;;;;4974127;28;20458;-91
2023/07/12 10:03:28;;;;;;;7.40;3.90;;;25.90;1.00;;;;;;4967427;29;20443;-91
2023/07/12 10:06:03;;;;;;;7.10;3.60;;;25.90;1.00;;;;;;4966588;29;20479;-92
2023/07/12 10:08:45;;;;;;;13.60;4.70;;;25.90;1.00;;;;;;4972635;29;20430;-92
2023/07/12 10:11:18;;;;;;;5.33;4.27;;;25.80;1.00;;;;;;4973895;29;20426;-92
2023/07/12 10:13:49;;;;;;;3.80;3.40;;;25.70;1.00;;;;;;4966246;29;20427;-90
2023/07/12 10:16:20;;;;;;;5.50;4.23;;;26.00;1.00;;;;;;4969973;28;20489;-91
2023/07/12 10:18:50;;;;;;;4.20;3.90;;;26.00;1.00;;;;;;4970424;29;20474;-91
2023/07/12 10:21:23;;;;;;;2.80;2.70;;;26.00;1.00;;;;;;4976455;29;20450;-92
2023/07/12 10:23:55;;;;;;;3.23;2.97;;;25.90;1.00;;;;;;4977390;29;20441;-92
2023/07/12 10:26:23;;;;;;;4.30;3.17;;;;;;;;;;4978437;29;20538;-92
2023/07/12 10:28:59;;;;;;;2.80;2.60;;;25.90;1.00;;;;;;4981222;28;20469;-91
2023/07/12 10:31:34;;;;;;;4.37;2.80;;;26.10;1.00;;;;;;4978345;28;20457;-91
2023/07/12 10:34:16;;;;;;;3.03;2.73;;;26.10;99.90;;;;;;4972123;29;20457;-92
2023/07/12 10:36:48;;;;;;;3.23;2.97;;;27.00;1.00;;;;;;4970137;29;20487;-93
2023/07/12 10:39:16;;;;;;;3.50;3.20;;;26.20;1.00;;;;;;4967700;29;20557;-92
2023/07/12 10:41:47;;;;;;;2.83;2.63;;;26.40;99.90;;;;;;4966503;29;20556;-91
2023/07/12 10:44:20;;;;;;;3.40;3.10;;;26.60;1.00;;;;;;4973712;29;20517;-91
2023/07/12 10:46:52;;;;;;;5.90;2.67;;;26.40;99.90;;;;;;4966693;29;20454;-91
2023/07/12 10:49:21;;;;;;;4.00;3.10;;;26.50;99.90;;;;;;4967045;29;20426;-92
2023/07/12 10:52:06;;;;;;;2.77;2.57;;;26.50;99.90;;;;;;4966130;29;20450;-92
2023/07/12 10:54:51;;;;;;;2.97;2.70;;;26.60;99.90;;;;;;4966124;29;20510;-92
2023/07/12 10:57:28;;;;;;;2.97;2.40;;;26.50;99.90;;;;;;4968801;29;20509;-92
2023/07/12 11:00:05;;;;;;;5.47;3.03;;;26.70;1.00;;;;;;4965716;29;20561;-92
2023/07/12 11:02:40;;;;;;;2.97;2.60;;;26.70;99.90;;;;;;4966556;29;20444;-92
2023/07/12 11:05:38;;;;;;;3.13;2.30;;;26.70;99.90;;;;;;4966234;29;20518;-90
2023/07/12 11:08:39;;;;;;;4.00;2.63;;;26.10;99.90;;;;;;4971749;29;20478;-90
2023/07/12 11:11:36;;;;;;;2.47;2.27;;;26.70;1.00;;;;;;4971830;29;20456;-90
2023/07/12 11:14:32;;;;;;;4.57;2.17;;;26.90;99.90;;;;;;4974473;29;20591;-90
2023/07/12 11:17:22;;;;;;;2.80;2.13;;;27.00;99.90;;;;;;4975346;29;20469;-91
2023/07/12 11:20:03;;;;;;;2.67;2.00;;;27.00;99.90;;;;;;4970670;29;20498;-91
2023/07/12 11:22:56;;;;;;;2.50;2.30;;;26.80;99.90;;;;;;4974546;29;20432;-91
2023/07/12 11:25:31;;;;;;;2.60;2.10;;;26.80;1.00;;;;;;4978778;28;20462;-91
2023/07/12 11:28:02;;;;;;;3.43;2.23;;;26.70;1.00;;;;;;4980918;28;20445;-88
2023/07/12 11:30:41;;;;;;;2.80;2.60;;;26.90;1.00;;;;;;4982342;28;20465;-89
2023/07/12 11:33:22;;;;;;;3.30;1.67;;;26.80;99.90;;;;;;4981850;28;20510;-91
2023/07/12 11:35:54;;;;;;;2.70;2.20;;;27.00;99.90;;;;;;4974826;29;20496;-91
2023/07/12 11:38:25;;;;;;;4.07;2.73;;;27.00;99.90;;;;;;4965590;29;20970;-92
2023/07/12 11:40:56;;;;;;;2.90;1.93;;;27.10;99.90;;;;;;4975649;28;20418;-91
2023/07/12 11:43:35;;;;;;;1.90;1.80;;;27.10;99.90;;;;;;4981724;28;20446;-90
2023/07/12 11:46:10;;;;;;;2.57;1.70;;;27.00;99.90;;;;;;4981555;28;20458;-91
2023/07/12 11:48:38;;;;;;;2.10;1.90;;;;;;;;;;4980669;28;20450;-91
2023/07/12 11:51:08;;;;;;;2.10;1.70;;;27.20;99.90;;;;;;4979082;29;20418;-91
2023/07/12 11:53:35;;;;;;;2.13;1.80;;;;;;;;;;4974428;29;20466;-91
2023/07/12 11:56:04;;;;;;;2.30;2.10;;;28.60;1.00;;;;;;4972585;28;20462;-90
2023/07/12 11:58:32;;;;;;;2.83;2.63;;;;;;;;;;4981384;28;20455;-91
2023/07/12 12:01:00;;;;;;;3.00;2.73;;;27.10;99.90;;;;;;4981516;28;20434;-90
2023/07/12 12:03:27;;;;;;;2.10;2.00;;;;;;;;;;4981696;28;20443;-90
2023/07/12 12:05:54;;;;;;;2.53;2.27;;;26.90;99.90;;;;;;4979568;28;20481;-91
2023/07/12 12:08:25;;;;;;;2.30;2.10;;;26.40;1.00;;;;;;4977725;29;20454;-91
2023/07/12 12:10:54;;;;;;;5.37;1.83;;;26.60;99.90;;;;;;4981057;28;20422;-89
2023/07/12 12:13:29;;;;;;;1.70;1.60;;;26.70;99.90;;;;;;4979511;28;20502;-90
2023/07/12 12:16:04;;;;;;;2.10;1.87;;;26.80;99.90;;;;;;4973656;28;20513;-91
2023/07/12 12:18:32;;;;;;;1.97;1.87;;;26.90;99.90;;;;;;4977913;28;20410;-91
2023/07/12 12:21:02;;;;;;;1.83;1.73;;;26.80;99.90;;;;;;4979675;29;20427;-90
2023/07/12 12:23:33;;;;;;;3.80;1.73;;;26.60;99.90;;;;;;4977514;28;20422;-90
2023/07/12 12:26:05;;;;;;;3.07;2.63;;;27.00;1.00;;;;;;4968597;29;20469;-91
2023/07/12 12:28:37;;;;;;;2.77;2.57;;;26.70;99.90;;;;;;4966806;29;20825;-91
2023/07/12 12:31:15;;;;;;;2.50;1.73;;;26.90;99.90;;;;;;4968189;29;20438;-91
2023/07/12 12:33:46;;;;;;;2.73;1.73;;;27.00;99.90;;;;;;4975694;28;20403;-91
2023/07/12 12:36:21;;;;;;;3.37;1.93;;;27.00;99.90;;;;;;4977110;29;20490;-91
2023/07/12 12:38:58;;;;;;;2.10;1.60;;;27.10;99.90;;;;;;4978420;28;20542;-91
2023/07/12 12:41:32;;;;;;;1.60;1.50;;;26.50;1.00;;;;;;4979552;28;20505;-90
2023/07/12 12:44:08;;;;;;;3.50;1.50;;;26.80;99.90;;;;;;4979879;28;20426;-91
2023/07/12 12:46:35;;;;;;;2.70;1.90;;;26.70;99.90;;;;;;4980029;28;20502;-90
2023/07/12 12:49:03;;;;;;;2.50;2.00;;;;;;;;;;4980328;28;20438;-90
2023/07/12 12:51:32;;;;;;;2.33;1.67;;;26.80;1.00;;;;;;4980192;28;20463;-90
2023/07/12 12:53:59;;;;;;;1.43;1.33;;;26.80;1.00;;;;;;4980423;28;20461;-91
2023/07/12 12:56:26;;;;;;;2.37;1.60;;;;;;;;;;4979711;28;20454;-91
2023/07/12 12:58:53;;;;;;;1.40;1.30;;;26.60;99.90;;;;;;4980345;28;20465;-90
2023/07/12 13:01:21;;;;;;;1.60;1.50;;;26.70;99.90;;;;;;4977670;28;20890;-90
2023/07/12 13:03:51;;;;;;;2.93;1.37;;;26.60;99.90;;;;;;4963113;29;20537;-91
2023/07/12 13:06:20;;;;;;;1.67;1.40;;;26.70;1.00;;;;;;4965647;29;20565;-92
2023/07/12 13:08:47;;;;;;;2.17;1.50;;;;;;;;;;4965147;29;20541;-92
2023/07/12 13:11:15;;;;;;;3.60;1.70;;;;;;;;;;4964220;29;20493;-92
2023/07/12 13:13:42;;;;;;;2.13;1.73;;;;;;;;;;4966995;29;20446;-91
2023/07/12 13:16:15;;;;;;;7.90;2.00;;;27.20;99.90;;;;;;4974978;29;20494;-91
2023/07/12 13:18:45;;;;;;;2.83;1.83;;;27.30;99.90;;;;;;4973612;29;20464;-90
2023/07/12 13:21:23;;;;;;;1.53;1.30;;;27.30;99.90;;;;;;4968606;29;20485;-92
2023/07/12 13:23:50;;;;;;;3.00;1.47;;;;;;;;;;4965965;29;20442;-90
2023/07/12 13:26:20;;;;;;;1.70;1.60;;;27.20;99.90;;;;;;4962346;29;20474;-90
2023/07/12 13:28:47;;;;;;;3.03;1.33;;;;;;;;;;4963776;29;20446;-90
2023/07/12 13:31:18;;;;;;;1.57;1.20;;;27.10;99.90;;;;;;4968036;29;20469;-90
2023/07/12 13:33:47;;;;;;;2.70;1.00;;;27.10;99.90;;;;;;4972889;29;20438;-90
2023/07/12 13:36:27;;;;;;;2.80;1.03;;;27.10;99.90;;;;;;4976122;29;20453;-91
2023/07/12 13:38:58;;;;;;;3.40;1.13;;;27.40;99.90;;;;;;4969838;29;20441;-91
2023/07/12 13:41:26;;;;;;;2.13;1.00;;;27.20;99.90;;;;;;4975363;28;20442;-91
2023/07/12 13:43:54;;;;;;;3.27;1.63;;;;;;;;;;4979746;28;20513;-90
2023/07/12 13:46:31;;;;;;;2.50;1.13;;;27.40;99.90;;;;;;4971432;29;20477;-93
2023/07/12 13:52:30;;;;;;;3.10;1.20;;;27.30;99.90;;;;;;4979404;28;20495;-93
2023/07/12 13:58:58;;;;;;;6.37;1.47;;;27.10;1.00;;;;;;4944192;29;20432;-92
2023/07/12 14:07:08;;;;;;;2.30;1.50;;;27.50;99.90;;;;;;5413787;23;20504;-95
2023/07/12 14:12:33;;;;;;;1.77;1.20;;;27.60;99.90;;;;;;5084710;23;20489;-94
2023/07/12 14:56:25;;;;;;;2.00;1.60;;;27.00;1.00;;;;;;4916518;29;20495;-92
2023/07/12 21:33:47;;;;;;;6.10;3.23;;;22.20;99.90;;;;;;3081650;23;20478;-93
2023/07/12 21:36:23;;;;;;;4.77;4.03;;;;;;;;;;4979814;28;20426;-90
2023/07/12 21:39:09;;;;;;;6.57;3.70;;;22.00;99.90;;;;;;4979715;28;20456;-92
2023/07/12 21:53:58;;;;;;;;;;;;;;;;;;;;;
2023/07/12 21:59:52;;;;;;;11.30;9.20;;;;;;;;;;4869571;29;20489;-92
2023/07/12 22:02:22;;;;;;;4.83;3.97;;;;;;;;;;4970730;28;20541;-93
2023/07/12 22:04:54;;;;;;;6.50;3.13;;;;;;;;;;4979807;28;20466;-94
2023/07/12 22:44:33;;;;;;;5.40;3.30;;;21.40;99.90;;;;;;4976113;28;20454;-94
2023/07/12 22:47:33;;;;;;;3.30;3.00;;;21.30;99.90;;;;;;4975585;29;20462;-94
2023/07/12 23:14:22;;;;;;;4.43;4.00;;;21.20;99.90;;;;;;4982398;23;20492;-92
2023/07/12 23:41:22;;;;;;;;;;;;;;;;;;;;;
